createdAt,value
2022-12-09T00:00:06.776Z,89.93
2022-12-09T00:02:34.173Z,90.03
2022-12-09T00:05:01.250Z,90.05
2022-12-09T00:07:28.082Z,89.85
2022-12-09T00:09:54.854Z,90.21
2022-12-09T00:12:21.574Z,89.98
2022-12-09T00:14:48.326Z,91.21
2022-12-09T00:17:15.052Z,90.97
2022-12-09T00:19:41.961Z,90.76
2022-12-09T00:22:08.691Z,90.45
2022-12-09T00:24:35.491Z,90.42
2022-12-09T00:27:02.179Z,90.19
2022-12-09T00:29:28.739Z,90.44
2022-12-09T00:31:55.494Z,90.75
2022-12-09T00:34:22.417Z,90.51
2022-12-09T00:36:49.115Z,90.79
2022-12-09T00:39:15.791Z,91.30
2022-12-09T00:41:42.628Z,91.60
2022-12-09T00:44:10.034Z,92.74
2022-12-09T00:46:37.722Z,92.80
2022-12-09T00:49:06.034Z,93.00
2022-12-09T00:51:33.006Z,92.91
2022-12-09T00:54:00.110Z,93.49
2022-12-09T00:56:28.967Z,93.68
2022-12-09T00:58:56.855Z,93.67
2022-12-09T01:01:26.104Z,93.76
2022-12-09T01:03:52.872Z,94.08
2022-12-09T01:06:23.355Z,94.16
2022-12-09T01:08:50.330Z,94.15
2022-12-09T01:11:23.338Z,93.85
2022-12-09T01:13:50.425Z,93.57
2022-12-09T01:16:18.968Z,93.54
2022-12-09T01:18:46.262Z,93.31
2022-12-09T01:21:13.429Z,93.64
2022-12-09T01:23:40.681Z,93.88
2022-12-09T01:26:08.553Z,93.87
2022-12-09T01:28:38.293Z,94.05
2022-12-09T01:31:13.411Z,94.00
2022-12-09T01:33:40.542Z,93.49
2022-12-09T01:36:14.527Z,93.43
2022-12-09T01:38:41.453Z,94.00
2022-12-09T01:41:08.196Z,94.06
2022-12-09T01:43:35.049Z,93.90
2022-12-09T01:46:01.934Z,93.82
2022-12-09T01:48:37.022Z,94.38
2022-12-09T01:51:10.679Z,94.42
2022-12-09T01:53:40.095Z,94.08
2022-12-09T01:56:12.207Z,93.96
2022-12-09T01:58:39.101Z,94.05
2022-12-09T02:01:06.544Z,93.96
2022-12-09T02:03:33.783Z,93.62
2022-12-09T02:06:00.970Z,93.65
2022-12-09T02:08:27.606Z,93.47
2022-12-09T02:11:05.079Z,93.51
2022-12-09T02:13:49.098Z,93.53
2022-12-09T02:16:21.902Z,93.39
2022-12-09T02:19:00.311Z,93.15
2022-12-09T02:21:34.028Z,92.96
2022-12-09T02:24:17.572Z,92.85
2022-12-09T02:27:05.707Z,92.51
2022-12-09T02:29:53.114Z,92.49
2022-12-09T02:32:26.548Z,92.85
2022-12-09T02:35:04.827Z,92.65
2022-12-09T02:37:52.154Z,92.20
2022-12-09T02:40:29.163Z,92.01
2022-12-09T02:42:58.212Z,92.03
2022-12-09T02:45:28.111Z,91.91
2022-12-09T02:47:58.842Z,91.59
2022-12-09T02:50:29.298Z,91.74
2022-12-09T02:52:58.902Z,91.85
2022-12-09T02:55:29.097Z,91.75
2022-12-09T02:58:00.635Z,91.34
2022-12-09T03:00:29.605Z,90.99
2022-12-09T03:03:01.460Z,90.82
2022-12-09T03:05:47.891Z,90.82
2022-12-09T03:08:33.353Z,91.15
2022-12-09T03:11:07.658Z,90.93
2022-12-09T03:13:45.068Z,91.08
2022-12-09T03:16:30.340Z,90.80
2022-12-09T03:19:19.271Z,90.87
2022-12-09T03:21:48.134Z,90.65
2022-12-09T03:24:20.936Z,90.40
2022-12-09T03:26:49.858Z,90.40
2022-12-09T03:29:21.087Z,90.78
2022-12-09T03:31:49.465Z,90.45
2022-12-09T03:34:20.141Z,90.54
2022-12-09T03:36:50.739Z,90.66
2022-12-09T03:39:24.682Z,90.45
2022-12-09T03:41:57.376Z,90.28
2022-12-09T03:44:26.828Z,90.33
2022-12-09T03:46:53.569Z,90.10
2022-12-09T03:49:20.382Z,90.04
2022-12-09T03:51:57.310Z,89.63
2022-12-09T03:54:24.275Z,89.63
2022-12-09T03:56:56.934Z,89.27
2022-12-09T03:59:28.792Z,88.95
2022-12-09T04:01:56.111Z,88.83
2022-12-09T04:04:23.578Z,88.67
2022-12-09T04:06:52.949Z,88.56
2022-12-09T04:09:20.117Z,88.57
2022-12-09T04:11:46.972Z,88.70
2022-12-09T04:14:15.785Z,88.79
2022-12-09T04:16:43.605Z,89.28
2022-12-09T04:19:10.956Z,89.28
2022-12-09T04:21:37.947Z,89.13
2022-12-09T04:24:04.922Z,88.94
2022-12-09T04:26:31.707Z,88.91
2022-12-09T04:28:58.716Z,88.79
2022-12-09T04:31:25.916Z,88.81
2022-12-09T04:33:52.704Z,88.89
2022-12-09T04:36:20.557Z,88.96
2022-12-09T04:38:47.812Z,88.93
2022-12-09T04:41:16.241Z,88.70
2022-12-09T04:43:43.434Z,88.72
2022-12-09T04:46:13.678Z,88.94
2022-12-09T04:48:41.213Z,89.10
2022-12-09T04:51:15.897Z,89.62
2022-12-09T04:53:43.422Z,89.78
2022-12-09T04:56:16.555Z,89.78
2022-12-09T04:58:44.950Z,90.17
2022-12-09T05:01:18.161Z,89.79
2022-12-09T05:03:50.289Z,89.54
2022-12-09T05:06:19.065Z,89.83
2022-12-09T05:08:46.573Z,89.00
2022-12-09T05:11:19.454Z,88.75
2022-12-09T05:13:46.588Z,88.83
2022-12-09T05:16:17.291Z,88.84
2022-12-09T05:18:46.467Z,88.75
2022-12-09T05:21:16.049Z,88.57
2022-12-09T05:23:43.766Z,88.39
2022-12-09T05:26:13.849Z,88.29
2022-12-09T05:28:41.027Z,87.89
2022-12-09T05:31:11.748Z,87.77
2022-12-09T05:33:39.612Z,87.58
2022-12-09T05:36:13.152Z,87.82
2022-12-09T05:38:41.135Z,87.47
2022-12-09T05:41:08.206Z,87.90
2022-12-09T05:43:37.079Z,87.84
2022-12-09T05:46:05.793Z,88.01
2022-12-09T05:48:33.534Z,87.84
2022-12-09T05:51:04.228Z,87.91
2022-12-09T05:53:31.525Z,87.88
2022-12-09T05:55:58.366Z,87.91
2022-12-09T05:58:25.875Z,87.84
2022-12-09T06:00:56.565Z,88.07
2022-12-09T06:03:24.476Z,88.03
2022-12-09T06:05:52.180Z,87.88
2022-12-09T06:08:19.733Z,87.84
2022-12-09T06:10:47.226Z,88.21
2022-12-09T06:13:14.723Z,88.68
2022-12-09T06:15:41.668Z,88.44
2022-12-09T06:18:08.855Z,88.39
2022-12-09T06:20:39.903Z,88.14
2022-12-09T06:23:06.742Z,88.00
2022-12-09T06:25:33.805Z,88.35
2022-12-09T06:28:00.833Z,88.36
2022-12-09T06:30:27.544Z,88.44
2022-12-09T06:32:54.410Z,88.55
2022-12-09T06:35:21.309Z,88.55
2022-12-09T06:37:52.389Z,88.41
2022-12-09T06:40:22.722Z,88.86
2022-12-09T06:42:51.238Z,88.82
2022-12-09T06:45:19.923Z,89.17
2022-12-09T06:47:47.742Z,90.27
2022-12-09T06:50:16.316Z,90.10
2022-12-09T06:52:43.570Z,90.44
2022-12-09T06:55:11.276Z,90.33
2022-12-09T06:57:38.348Z,90.33
2022-12-09T07:00:06.513Z,90.34
2022-12-09T07:02:36.700Z,89.97
2022-12-09T07:05:04.394Z,90.57
2022-12-09T07:07:31.913Z,91.21
2022-12-09T07:09:58.986Z,90.09
2022-12-09T07:12:26.060Z,88.80
2022-12-09T07:14:52.803Z,88.70
2022-12-09T07:17:20.889Z,88.36
2022-12-09T07:19:48.257Z,88.08
2022-12-09T07:22:16.076Z,88.40
2022-12-09T07:24:43.267Z,88.69
2022-12-09T07:27:19.299Z,88.91
2022-12-09T07:29:47.211Z,89.45
2022-12-09T07:32:14.829Z,89.02
2022-12-09T07:34:43.008Z,89.18
2022-12-09T07:37:09.950Z,89.33
2022-12-09T07:39:36.839Z,89.26
2022-12-09T07:42:03.847Z,88.85
2022-12-09T07:44:31.098Z,88.26
2022-12-09T07:46:58.555Z,87.73
2022-12-09T07:49:25.893Z,87.73
2022-12-09T07:51:52.861Z,86.43
2022-12-09T07:54:20.431Z,86.06
2022-12-09T07:56:47.950Z,85.65
2022-12-09T07:59:15.378Z,84.61
2022-12-09T08:01:43.312Z,84.71
2022-12-09T08:04:11.315Z,83.22
2022-12-09T08:06:39.110Z,82.51
2022-12-09T08:09:09.155Z,81.69
2022-12-09T08:11:36.783Z,81.58
2022-12-09T08:14:11.295Z,81.31
2022-12-09T08:16:40.773Z,81.17
2022-12-09T08:19:08.318Z,80.69
2022-12-09T08:21:35.848Z,79.84
2022-12-09T08:24:08.828Z,79.86
2022-12-09T08:26:37.568Z,78.85
2022-12-09T08:29:08.247Z,79.12
2022-12-09T08:31:40.597Z,78.54
2022-12-09T08:34:09.127Z,78.20
2022-12-09T08:36:37.154Z,78.24
2022-12-09T08:39:05.103Z,77.75
2022-12-09T08:41:38.530Z,77.51
2022-12-09T08:44:07.928Z,76.70
2022-12-09T08:46:36.434Z,76.63
2022-12-09T08:49:05.815Z,76.13
2022-12-09T08:51:34.193Z,75.46
2022-12-09T08:54:01.640Z,75.20
2022-12-09T08:56:29.170Z,75.12
2022-12-09T08:58:57.142Z,74.89
2022-12-09T09:01:32.367Z,74.35
2022-12-09T09:04:05.176Z,74.13
2022-12-09T09:06:32.386Z,74.17
2022-12-09T09:08:59.457Z,74.19
2022-12-09T09:11:27.154Z,74.02
2022-12-09T09:13:54.580Z,74.16
2022-12-09T09:16:23.886Z,72.99
2022-12-09T09:18:51.672Z,72.44
2022-12-09T09:21:21.705Z,72.07
2022-12-09T09:23:49.593Z,70.48
2022-12-09T09:26:19.358Z,69.11
2022-12-09T09:28:47.310Z,69.08
2022-12-09T09:31:17.622Z,67.75
2022-12-09T09:33:45.138Z,66.68
2022-12-09T09:36:15.103Z,66.53
2022-12-09T09:38:42.476Z,65.81
2022-12-09T09:41:27.888Z,65.79
2022-12-09T09:43:56.655Z,65.21
2022-12-09T09:46:42.419Z,64.77
2022-12-09T09:49:18.941Z,64.88
2022-12-09T09:51:49.246Z,64.33
2022-12-09T09:54:16.196Z,64.54
2022-12-09T09:56:53.685Z,64.54
2022-12-09T09:59:45.481Z,64.48
2022-12-09T10:02:12.657Z,64.11
2022-12-09T10:04:56.395Z,63.99
2022-12-09T10:07:28.246Z,63.29
2022-12-09T10:10:25.019Z,62.96
2022-12-09T10:13:26.500Z,63.38
2022-12-09T10:16:15.516Z,62.90
2022-12-09T10:19:07.643Z,62.74
2022-12-09T10:21:40.367Z,62.89
2022-12-09T10:24:22.223Z,62.71
2022-12-09T10:27:16.640Z,62.69
2022-12-09T10:29:55.049Z,63.18
2022-12-09T10:32:25.989Z,63.01
2022-12-09T10:34:53.421Z,62.36
2022-12-09T10:37:32.395Z,61.77
2022-12-09T10:40:20.446Z,61.85
2022-12-09T10:43:07.281Z,61.75
2022-12-09T10:46:08.418Z,61.76
2022-12-09T10:48:41.314Z,61.28
2022-12-09T10:51:14.104Z,61.02
2022-12-09T10:53:49.540Z,60.75
2022-12-09T10:56:32.478Z,60.64
2022-12-09T10:59:20.299Z,60.41
2022-12-09T11:01:52.052Z,59.98
2022-12-09T11:04:35.064Z,59.74
2022-12-09T11:07:16.882Z,59.41
2022-12-09T11:09:44.212Z,58.11
2022-12-09T11:12:27.423Z,58.32
2022-12-09T11:15:01.356Z,58.17
2022-12-09T11:17:43.122Z,57.93
2022-12-09T11:20:17.358Z,57.47
2022-12-09T11:22:46.681Z,57.58
2022-12-09T11:25:15.757Z,57.72
2022-12-09T11:27:53.819Z,57.11
2022-12-09T11:30:57.871Z,57.50
2022-12-09T11:33:37.581Z,57.28
2022-12-09T11:36:09.675Z,56.73
2022-12-09T11:38:36.298Z,57.24
2022-12-09T11:41:09.082Z,57.15
2022-12-09T11:43:43.118Z,58.05
2022-12-09T11:46:12.645Z,57.94
2022-12-09T11:48:53.715Z,57.09
2022-12-09T11:51:24.568Z,57.03
2022-12-09T11:53:54.549Z,55.17
2022-12-09T11:56:25.818Z,56.00
2022-12-09T11:59:09.011Z,60.22
2022-12-09T12:01:45.806Z,57.31
2022-12-09T12:04:16.403Z,56.41
2022-12-09T12:06:53.580Z,56.25
2022-12-09T12:09:26.725Z,55.49
2022-12-09T12:12:03.160Z,56.31
2022-12-09T12:14:30.785Z,55.32
2022-12-09T12:17:07.006Z,54.88
2022-12-09T12:19:37.317Z,55.46
2022-12-09T12:22:12.667Z,54.69
2022-12-09T12:24:54.258Z,55.20
2022-12-09T12:27:35.808Z,55.09
2022-12-09T12:30:09.215Z,54.23
2022-12-09T12:36:21.604Z,53.41
2022-12-09T12:39:27.083Z,54.02
2022-12-09T12:42:25.746Z,53.69
2022-12-09T12:45:21.341Z,54.04
2022-12-09T12:47:55.339Z,53.51
2022-12-09T12:50:49.304Z,53.87
2022-12-09T12:53:36.589Z,53.14
2022-12-09T12:56:08.744Z,52.71
2022-12-09T12:58:45.823Z,52.82
2022-12-09T13:01:36.382Z,53.24
2022-12-09T13:04:15.085Z,52.67
2022-12-09T13:06:46.629Z,52.83
2022-12-09T13:09:22.224Z,52.18
2022-12-09T13:12:15.024Z,52.75
2022-12-09T13:14:55.512Z,52.40
2022-12-09T13:17:28.279Z,52.12
2022-12-09T13:20:00.122Z,52.26
2022-12-09T13:22:50.760Z,52.20
2022-12-09T13:25:22.159Z,51.58
2022-12-09T13:27:58.207Z,51.50
2022-12-09T13:30:36.370Z,52.07
2022-12-09T13:33:30.193Z,51.89
2022-12-09T13:36:06.428Z,52.42
2022-12-09T13:38:40.624Z,51.58
2022-12-09T13:41:26.292Z,51.88
2022-12-09T13:43:58.386Z,52.03
2022-12-09T13:46:27.503Z,51.51
2022-12-09T13:48:55.225Z,51.87
2022-12-09T13:51:23.575Z,51.91
2022-12-09T13:53:53.750Z,51.61
2022-12-09T13:56:25.739Z,51.22
2022-12-09T13:58:55.458Z,51.56
2022-12-09T14:01:47.220Z,52.12
2022-12-09T14:04:25.058Z,51.87
2022-12-09T14:06:57.149Z,52.21
2022-12-09T14:09:33.467Z,52.33
2022-12-09T14:12:06.981Z,52.50
2022-12-09T14:14:34.053Z,52.64
2022-12-09T14:17:29.749Z,52.51
2022-12-09T14:20:18.177Z,52.99
2022-12-09T14:23:03.466Z,53.16
2022-12-09T14:25:33.608Z,53.23
2022-12-09T14:28:12.292Z,53.13
2022-12-09T14:31:00.743Z,53.01
2022-12-09T14:33:34.783Z,53.29
2022-12-09T14:36:06.811Z,53.53
2022-12-09T14:39:08.016Z,53.19
2022-12-09T14:41:39.264Z,53.12
2022-12-09T14:44:08.697Z,53.66
2022-12-09T14:46:37.956Z,53.21
2022-12-09T14:49:19.467Z,53.75
2022-12-09T14:51:49.723Z,53.84
2022-12-09T14:54:28.329Z,53.87
2022-12-09T14:56:57.864Z,54.00
2022-12-09T14:59:26.880Z,53.68
2022-12-09T15:02:16.948Z,53.58
2022-12-09T15:04:46.171Z,53.77
2022-12-09T15:07:21.052Z,53.69
2022-12-09T15:10:17.118Z,53.65
2022-12-09T15:12:50.244Z,54.39
2022-12-09T15:15:26.501Z,54.20
2022-12-09T15:17:55.468Z,53.73
2022-12-09T15:20:26.128Z,54.26
2022-12-09T15:22:55.530Z,54.13
2022-12-09T15:25:23.905Z,53.31
2022-12-09T15:28:05.893Z,53.18
2022-12-09T15:30:35.640Z,53.33
2022-12-09T15:33:03.238Z,53.47
2022-12-09T15:35:33.064Z,53.71
2022-12-09T15:38:06.743Z,53.82
2022-12-09T15:40:36.336Z,53.57
2022-12-09T15:43:11.807Z,53.86
2022-12-09T15:45:42.830Z,53.78
2022-12-09T15:48:13.481Z,53.39
2022-12-09T15:50:51.381Z,53.45
2022-12-09T15:53:36.075Z,53.56
2022-12-09T15:56:13.842Z,53.85
2022-12-09T15:58:48.101Z,53.64
2022-12-09T16:01:27.969Z,53.61
2022-12-09T16:03:56.712Z,53.79
2022-12-09T16:06:27.557Z,53.78
2022-12-09T16:08:54.433Z,53.72
2022-12-09T16:11:47.920Z,53.86
2022-12-09T16:14:16.547Z,54.03
2022-12-09T16:16:48.107Z,54.11
2022-12-09T16:19:25.647Z,54.04
2022-12-09T16:21:58.096Z,54.06
2022-12-09T16:24:25.089Z,54.12
2022-12-09T16:26:54.688Z,53.85
2022-12-09T16:29:26.736Z,54.10
2022-12-09T16:32:12.171Z,54.30
2022-12-09T16:34:38.894Z,54.42
2022-12-09T16:37:23.329Z,54.63
2022-12-09T16:39:50.121Z,54.68
2022-12-09T16:42:40.959Z,54.90
2022-12-09T16:45:30.574Z,55.10
2022-12-09T16:47:59.056Z,55.41
2022-12-09T16:50:35.662Z,55.46
2022-12-09T16:53:05.599Z,55.24
2022-12-09T16:55:33.007Z,54.86
2022-12-09T16:58:00.894Z,55.38
2022-12-09T17:00:27.699Z,55.41
2022-12-09T17:03:02.083Z,55.85
2022-12-09T17:05:28.896Z,55.77
2022-12-09T17:07:55.822Z,56.04
2022-12-09T17:10:22.814Z,56.01
2022-12-09T17:12:49.736Z,56.25
2022-12-09T17:15:20.161Z,56.53
2022-12-09T17:17:48.904Z,56.45
2022-12-09T17:20:16.284Z,56.64
2022-12-09T17:22:43.156Z,56.40
2022-12-09T17:25:10.460Z,56.59
2022-12-09T17:27:37.670Z,56.51
2022-12-09T17:30:05.419Z,56.44
2022-12-09T17:32:32.074Z,56.64
2022-12-09T17:34:58.754Z,56.78
2022-12-09T17:37:25.497Z,56.75
2022-12-09T17:39:56.858Z,56.55
2022-12-09T17:42:28.384Z,56.68
2022-12-09T17:44:55.041Z,56.93
2022-12-09T17:47:21.702Z,56.93
2022-12-09T17:49:48.338Z,56.81
2022-12-09T17:52:15.053Z,56.81
2022-12-09T17:54:41.681Z,56.92
2022-12-09T17:57:08.364Z,57.21
2022-12-09T17:59:35.106Z,57.17
2022-12-09T18:02:03.784Z,57.63
2022-12-09T18:04:31.518Z,57.28
2022-12-09T18:06:58.432Z,57.40
2022-12-09T18:09:25.386Z,57.51
2022-12-09T18:11:52.150Z,57.30
2022-12-09T18:14:19.893Z,57.39
2022-12-09T18:16:46.688Z,57.18
2022-12-09T18:19:16.795Z,57.23
2022-12-09T18:21:44.935Z,57.28
2022-12-09T18:24:12.879Z,57.11
2022-12-09T18:26:42.219Z,57.03
2022-12-09T18:29:11.378Z,57.28
2022-12-09T18:31:39.701Z,57.42
2022-12-09T18:34:06.782Z,57.20
2022-12-09T18:36:33.958Z,57.76
2022-12-09T18:39:00.941Z,58.02
2022-12-09T18:41:30.172Z,58.18
2022-12-09T18:43:59.131Z,58.05
2022-12-09T18:46:30.136Z,58.08
2022-12-09T18:48:58.989Z,58.63
2022-12-09T18:51:26.158Z,59.05
2022-12-09T18:53:53.293Z,59.20
2022-12-09T18:56:20.095Z,59.00
2022-12-09T18:59:16.792Z,59.24
2022-12-09T19:01:35.787Z,59.18
2022-12-09T19:04:04.234Z,59.33
2022-12-09T19:06:36.833Z,58.83
2022-12-09T19:09:16.287Z,58.77
2022-12-09T19:11:44.473Z,59.02
2022-12-09T19:14:11.176Z,59.29
2022-12-09T19:16:38.652Z,59.48
2022-12-09T19:19:09.416Z,59.28
2022-12-09T19:21:38.340Z,59.08
2022-12-09T19:24:05.688Z,59.37
2022-12-09T19:26:34.407Z,59.51
2022-12-09T19:29:04.537Z,59.99
2022-12-09T19:31:37.125Z,60.32
2022-12-09T19:34:10.814Z,60.48
2022-12-09T19:36:37.602Z,61.31
2022-12-09T19:39:08.337Z,61.46
2022-12-09T19:41:36.672Z,62.18
2022-12-09T19:44:04.896Z,62.46
2022-12-09T19:46:32.093Z,62.44
2022-12-09T19:48:59.311Z,62.56
2022-12-09T19:51:27.667Z,63.00
2022-12-09T19:53:56.540Z,63.54
2022-12-09T19:56:24.634Z,63.55
2022-12-09T19:58:52.332Z,63.79
2022-12-09T20:01:20.754Z,63.64
2022-12-09T20:03:50.319Z,63.73
2022-12-09T20:06:19.743Z,64.03
2022-12-09T20:08:47.565Z,64.36
2022-12-09T20:11:23.768Z,65.03
2022-12-09T20:13:51.358Z,65.38
2022-12-09T20:16:22.103Z,65.49
2022-12-09T20:18:50.306Z,65.50
2022-12-09T20:21:19.136Z,65.78
2022-12-09T20:23:47.008Z,66.67
2022-12-09T20:26:16.759Z,66.54
2022-12-09T20:28:45.496Z,67.13
2022-12-09T20:31:21.064Z,66.82
2022-12-09T20:33:51.907Z,67.72
2022-12-09T20:36:21.135Z,68.45
2022-12-09T20:38:50.047Z,68.29
2022-12-09T20:41:16.805Z,68.06
2022-12-09T20:43:46.023Z,68.68
2022-12-09T20:46:14.205Z,68.75
2022-12-09T20:48:41.724Z,68.53
2022-12-09T20:51:19.982Z,68.62
2022-12-09T20:53:48.022Z,68.31
2022-12-09T20:56:15.973Z,68.26
2022-12-09T20:58:44.554Z,68.75
2022-12-09T21:01:15.146Z,68.95
2022-12-09T21:03:42.962Z,69.81
2022-12-09T21:06:10.985Z,70.25
2022-12-09T21:08:37.767Z,69.96
2022-12-09T21:11:24.103Z,70.54
2022-12-09T21:14:00.931Z,71.21
2022-12-09T21:16:30.656Z,71.44
2022-12-09T21:19:01.931Z,71.56
2022-12-09T21:21:31.481Z,71.47
2022-12-09T21:23:59.712Z,71.31
2022-12-09T21:26:27.198Z,71.63
2022-12-09T21:28:54.680Z,71.82
2022-12-09T21:31:33.676Z,71.58
2022-12-09T21:34:03.521Z,71.58
2022-12-09T21:36:35.441Z,71.55
2022-12-09T21:39:03.100Z,71.49
2022-12-09T21:41:32.236Z,71.89
2022-12-09T21:43:59.646Z,71.51
2022-12-09T21:46:31.766Z,71.83
2022-12-09T21:49:03.978Z,71.58
2022-12-09T21:51:32.429Z,71.71
2022-12-09T21:54:00.013Z,71.45
2022-12-09T21:56:30.324Z,71.84
2022-12-09T21:58:58.472Z,71.59
2022-12-09T22:01:28.234Z,71.58
2022-12-09T22:03:56.827Z,71.31
2022-12-09T22:06:23.906Z,71.23
2022-12-09T22:08:51.255Z,71.44
2022-12-09T22:11:23.570Z,71.33
2022-12-09T22:13:50.794Z,71.44
2022-12-09T22:16:20.279Z,71.14
2022-12-09T22:18:48.523Z,71.29
2022-12-09T22:21:26.687Z,71.69
2022-12-09T22:23:55.376Z,71.07
2022-12-09T22:26:22.898Z,71.10
2022-12-09T22:28:49.946Z,71.48
2022-12-09T22:31:22.207Z,70.97
2022-12-09T22:33:50.907Z,71.09
2022-12-09T22:36:19.084Z,71.23
2022-12-09T22:38:46.234Z,71.34
2022-12-09T22:41:19.208Z,71.32
2022-12-09T22:43:48.200Z,71.63
2022-12-09T22:46:20.376Z,71.94
2022-12-09T22:48:47.606Z,71.74
2022-12-09T22:51:21.745Z,71.73
2022-12-09T22:53:50.251Z,72.05
2022-12-09T22:56:17.440Z,72.01
2022-12-09T22:58:44.122Z,71.96
2022-12-09T23:01:12.960Z,72.21
2022-12-09T23:03:39.656Z,72.10
2022-12-09T23:06:07.059Z,72.29
2022-12-09T23:08:34.178Z,72.60
2022-12-09T23:11:22.239Z,72.96
2022-12-09T23:13:49.428Z,72.85
2022-12-09T23:16:19.385Z,73.10
2022-12-09T23:18:46.683Z,72.97
2022-12-09T23:21:18.598Z,72.69
2022-12-09T23:23:45.358Z,72.77
2022-12-09T23:26:15.791Z,72.76
2022-12-09T23:28:45.486Z,73.31
2022-12-09T23:31:14.194Z,73.69
2022-12-09T23:33:42.747Z,73.61
2022-12-09T23:36:13.151Z,73.51
2022-12-09T23:38:40.493Z,73.59
2022-12-09T23:41:07.718Z,73.88
2022-12-09T23:43:35.789Z,73.87
2022-12-09T23:46:05.376Z,73.51
2022-12-09T23:48:33.456Z,73.63
2022-12-09T23:51:27.756Z,73.83
2022-12-09T23:53:59.828Z,73.79
2022-12-09T23:56:27.212Z,74.08
2022-12-09T23:59:03.419Z,74.22
